sensor_id;sensor_type;location;lat;lon;timestamp;P1;durP1;ratioP1;P2;durP2;ratioP2
80891;SDS011;70343;51.530;5.050;2024-02-21T09:39:22;7.35;;;5.20;;
80891;SDS011;70343;51.530;5.050;2024-02-21T09:41:50;9.82;;;5.30;;
80891;SDS011;70343;51.530;5.050;2024-02-21T09:44:23;7.00;;;5.25;;
80891;SDS011;70343;51.530;5.050;2024-02-21T09:46:52;7.03;;;4.57;;
80891;SDS011;70343;51.530;5.050;2024-02-21T09:52:02;7.63;;;4.18;;
80891;SDS011;70343;51.530;5.050;2024-02-21T09:54:29;10.93;;;6.82;;
80891;SDS011;70343;51.530;5.050;2024-02-21T09:57:02;8.10;;;5.55;;
80891;SDS011;70343;51.530;5.050;2024-02-21T09:59:28;10.38;;;5.45;;
80891;SDS011;70343;51.530;5.050;2024-02-21T10:01:56;7.82;;;5.13;;
80891;SDS011;70343;51.530;5.050;2024-02-21T10:04:21;10.95;;;7.75;;
80891;SDS011;70343;51.530;5.050;2024-02-21T10:06:47;10.95;;;6.13;;
80891;SDS011;70343;51.530;5.050;2024-02-21T10:11:54;9.82;;;6.18;;
80891;SDS011;70343;51.530;5.050;2024-02-21T10:14:35;11.27;;;6.28;;
80891;SDS011;70343;51.530;5.050;2024-02-21T10:17:01;10.65;;;5.03;;
80891;SDS011;70343;51.530;5.050;2024-02-21T10:19:28;12.25;;;6.40;;
80891;SDS011;70343;51.530;5.050;2024-02-21T10:22:07;9.30;;;5.22;;
80891;SDS011;70343;51.530;5.050;2024-02-21T10:24:34;10.00;;;5.63;;
80891;SDS011;70343;51.530;5.050;2024-02-21T10:27:03;8.93;;;5.85;;
80891;SDS011;70343;51.530;5.050;2024-02-21T10:29:38;10.70;;;5.88;;
80891;SDS011;70343;51.530;5.050;2024-02-21T10:34:31;10.32;;;5.60;;
80891;SDS011;70343;51.530;5.050;2024-02-21T10:37:03;9.90;;;5.68;;
80891;SDS011;70343;51.530;5.050;2024-02-21T10:39:31;8.88;;;4.47;;
80891;SDS011;70343;51.530;5.050;2024-02-21T10:41:59;9.80;;;4.85;;
80891;SDS011;70343;51.530;5.050;2024-02-21T10:44:29;9.57;;;5.22;;
80891;SDS011;70343;51.530;5.050;2024-02-21T10:46:56;9.73;;;4.68;;
80891;SDS011;70343;51.530;5.050;2024-02-21T10:49:23;11.75;;;4.65;;
80891;SDS011;70343;51.530;5.050;2024-02-21T10:51:50;5.82;;;3.42;;
80891;SDS011;70343;51.530;5.050;2024-02-21T10:56:58;6.20;;;4.07;;
80891;SDS011;70343;51.530;5.050;2024-02-21T10:59:27;6.00;;;3.65;;
80891;SDS011;70343;51.530;5.050;2024-02-21T11:01:55;10.82;;;3.88;;
80891;SDS011;70343;51.530;5.050;2024-02-21T11:04:20;6.55;;;3.55;;
80891;SDS011;70343;51.530;5.050;2024-02-21T11:06:46;5.63;;;3.67;;
80891;SDS011;70343;51.530;5.050;2024-02-21T11:09:13;10.55;;;2.92;;
80891;SDS011;70343;51.530;5.050;2024-02-21T11:11:43;8.63;;;3.60;;
80891;SDS011;70343;51.530;5.050;2024-02-21T11:16:45;5.63;;;3.42;;
80891;SDS011;70343;51.530;5.050;2024-02-21T11:19:20;7.10;;;3.50;;
80891;SDS011;70343;51.530;5.050;2024-02-21T11:21:47;6.00;;;3.58;;
80891;SDS011;70343;51.530;5.050;2024-02-21T11:24:13;7.13;;;3.05;;
80891;SDS011;70343;51.530;5.050;2024-02-21T11:26:40;7.95;;;3.10;;
80891;SDS011;70343;51.530;5.050;2024-02-21T11:29:08;5.22;;;2.75;;
80891;SDS011;70343;51.530;5.050;2024-02-21T11:31:42;8.35;;;3.10;;
80891;SDS011;70343;51.530;5.050;2024-02-21T11:34:16;6.63;;;2.97;;
80891;SDS011;70343;51.530;5.050;2024-02-21T11:36:50;5.30;;;3.03;;
80891;SDS011;70343;51.530;5.050;2024-02-21T11:39:20;4.72;;;3.05;;
80891;SDS011;70343;51.530;5.050;2024-02-21T11:42:05;6.85;;;3.30;;
80891;SDS011;70343;51.530;5.050;2024-02-21T11:44:35;7.53;;;3.45;;
80891;SDS011;70343;51.530;5.050;2024-02-21T11:47:08;4.50;;;2.70;;
80891;SDS011;70343;51.530;5.050;2024-02-21T11:49:38;6.25;;;3.53;;
80891;SDS011;70343;51.530;5.050;2024-02-21T11:52:07;6.35;;;2.80;;
80891;SDS011;70343;51.530;5.050;2024-02-21T11:54:33;7.57;;;2.92;;
80891;SDS011;70343;51.530;5.050;2024-02-21T11:56:59;7.43;;;3.28;;
80891;SDS011;70343;51.530;5.050;2024-02-21T11:59:25;7.88;;;3.40;;
80891;SDS011;70343;51.530;5.050;2024-02-21T12:01:52;8.30;;;2.83;;
80891;SDS011;70343;51.530;5.050;2024-02-21T12:04:18;9.55;;;3.22;;
80891;SDS011;70343;51.530;5.050;2024-02-21T12:06:45;7.07;;;3.25;;
80891;SDS011;70343;51.530;5.050;2024-02-21T12:09:14;5.28;;;2.10;;
80891;SDS011;70343;51.530;5.050;2024-02-21T12:11:41;5.47;;;2.60;;
80891;SDS011;70343;51.530;5.050;2024-02-21T12:14:07;6.03;;;2.58;;
80891;SDS011;70343;51.530;5.050;2024-02-21T12:16:34;9.73;;;3.35;;
80891;SDS011;70343;51.530;5.050;2024-02-21T12:19:02;5.53;;;2.40;;
80891;SDS011;70343;51.530;5.050;2024-02-21T12:21:31;5.00;;;1.95;;
80891;SDS011;70343;51.530;5.050;2024-02-21T12:24:13;6.10;;;2.67;;
80891;SDS011;70343;51.530;5.050;2024-02-21T12:26:40;5.88;;;2.38;;
80891;SDS011;70343;51.530;5.050;2024-02-21T12:29:06;7.15;;;3.42;;
80891;SDS011;70343;51.530;5.050;2024-02-21T12:31:34;7.32;;;3.30;;
80891;SDS011;70343;51.530;5.050;2024-02-21T12:34:01;7.70;;;3.30;;
80891;SDS011;70343;51.530;5.050;2024-02-21T12:36:27;7.10;;;3.30;;
80891;SDS011;70343;51.530;5.050;2024-02-21T12:38:52;5.20;;;2.50;;
80891;SDS011;70343;51.530;5.050;2024-02-21T12:41:18;7.18;;;2.40;;
80891;SDS011;70343;51.530;5.050;2024-02-21T12:43:43;5.30;;;2.90;;
80891;SDS011;70343;51.530;5.050;2024-02-21T12:46:09;5.80;;;3.10;;
80891;SDS011;70343;51.530;5.050;2024-02-21T12:48:34;4.85;;;2.30;;
80891;SDS011;70343;51.530;5.050;2024-02-21T12:51:00;7.07;;;2.67;;
80891;SDS011;70343;51.530;5.050;2024-02-21T12:53:25;4.78;;;2.30;;
80891;SDS011;70343;51.530;5.050;2024-02-21T12:55:51;5.07;;;2.13;;
80891;SDS011;70343;51.530;5.050;2024-02-21T12:58:17;6.45;;;2.25;;
80891;SDS011;70343;51.530;5.050;2024-02-21T13:00:42;7.45;;;3.50;;
80891;SDS011;70343;51.530;5.050;2024-02-21T13:03:08;3.58;;;1.92;;
80891;SDS011;70343;51.530;5.050;2024-02-21T13:05:36;5.35;;;2.10;;
80891;SDS011;70343;51.530;5.050;2024-02-21T13:08:02;4.53;;;2.20;;
80891;SDS011;70343;51.530;5.050;2024-02-21T13:10:28;8.80;;;2.38;;
80891;SDS011;70343;51.530;5.050;2024-02-21T13:12:53;6.60;;;2.70;;
80891;SDS011;70343;51.530;5.050;2024-02-21T13:15:19;5.95;;;2.13;;
80891;SDS011;70343;51.530;5.050;2024-02-21T13:17:45;8.70;;;2.83;;
80891;SDS011;70343;51.530;5.050;2024-02-21T13:20:10;6.18;;;2.55;;
80891;SDS011;70343;51.530;5.050;2024-02-21T13:22:36;4.80;;;2.15;;
80891;SDS011;70343;51.530;5.050;2024-02-21T13:25:03;4.07;;;2.30;;
80891;SDS011;70343;51.530;5.050;2024-02-21T13:27:30;6.32;;;2.55;;
80891;SDS011;70343;51.530;5.050;2024-02-21T13:29:55;5.68;;;2.15;;
80891;SDS011;70343;51.530;5.050;2024-02-21T13:32:21;5.28;;;2.13;;
80891;SDS011;70343;51.530;5.050;2024-02-21T13:34:46;6.65;;;2.25;;
80891;SDS011;70343;51.530;5.050;2024-02-21T13:37:12;7.15;;;2.35;;
80891;SDS011;70343;51.530;5.050;2024-02-21T13:39:38;5.68;;;2.25;;
80891;SDS011;70343;51.530;5.050;2024-02-21T13:42:04;5.20;;;2.30;;
80891;SDS011;70343;51.530;5.050;2024-02-21T13:44:34;7.30;;;2.42;;
80891;SDS011;70343;51.530;5.050;2024-02-21T13:47:00;4.32;;;2.10;;
80891;SDS011;70343;51.530;5.050;2024-02-21T13:49:26;4.95;;;2.13;;
80891;SDS011;70343;51.530;5.050;2024-02-21T13:51:51;7.25;;;2.55;;
80891;SDS011;70343;51.530;5.050;2024-02-21T13:54:17;6.47;;;2.47;;
80891;SDS011;70343;51.530;5.050;2024-02-21T13:56:44;6.32;;;2.55;;
80891;SDS011;70343;51.530;5.050;2024-02-21T13:59:11;2.78;;;2.13;;
80891;SDS011;70343;51.530;5.050;2024-02-21T14:01:39;5.45;;;2.17;;
80891;SDS011;70343;51.530;5.050;2024-02-21T14:04:04;5.82;;;2.38;;
80891;SDS011;70343;51.530;5.050;2024-02-21T14:06:30;3.47;;;1.98;;
80891;SDS011;70343;51.530;5.050;2024-02-21T14:08:55;7.80;;;3.50;;
80891;SDS011;70343;51.530;5.050;2024-02-21T14:11:21;4.13;;;2.63;;
80891;SDS011;70343;51.530;5.050;2024-02-21T14:13:46;5.57;;;2.75;;
80891;SDS011;70343;51.530;5.050;2024-02-21T14:16:12;5.53;;;2.75;;
80891;SDS011;70343;51.530;5.050;2024-02-21T14:18:40;6.78;;;2.92;;
80891;SDS011;70343;51.530;5.050;2024-02-21T14:21:07;4.50;;;2.13;;
80891;SDS011;70343;51.530;5.050;2024-02-21T14:23:36;3.15;;;2.45;;
80891;SDS011;70343;51.530;5.050;2024-02-21T14:26:02;3.03;;;2.30;;
80891;SDS011;70343;51.530;5.050;2024-02-21T14:28:28;4.13;;;2.45;;
80891;SDS011;70343;51.530;5.050;2024-02-21T14:30:54;4.72;;;2.92;;
80891;SDS011;70343;51.530;5.050;2024-02-21T14:33:23;7.20;;;3.03;;
80891;SDS011;70343;51.530;5.050;2024-02-21T14:35:49;5.55;;;2.95;;
80891;SDS011;70343;51.530;5.050;2024-02-21T14:38:16;5.72;;;2.75;;
80891;SDS011;70343;51.530;5.050;2024-02-21T14:40:42;4.78;;;2.50;;
80891;SDS011;70343;51.530;5.050;2024-02-21T14:43:08;7.05;;;3.40;;
80891;SDS011;70343;51.530;5.050;2024-02-21T14:45:34;6.80;;;3.17;;
80891;SDS011;70343;51.530;5.050;2024-02-21T14:47:59;8.00;;;3.25;;
80891;SDS011;70343;51.530;5.050;2024-02-21T14:50:29;7.75;;;3.00;;
80891;SDS011;70343;51.530;5.050;2024-02-21T14:52:54;5.13;;;2.78;;
80891;SDS011;70343;51.530;5.050;2024-02-21T14:55:20;7.32;;;3.20;;
80891;SDS011;70343;51.530;5.050;2024-02-21T14:57:45;7.90;;;3.33;;
80891;SDS011;70343;51.530;5.050;2024-02-21T15:00:11;6.55;;;3.92;;
80891;SDS011;70343;51.530;5.050;2024-02-21T15:02:37;6.18;;;3.65;;
80891;SDS011;70343;51.530;5.050;2024-02-21T15:05:03;4.80;;;3.45;;
80891;SDS011;70343;51.530;5.050;2024-02-21T15:07:30;8.85;;;4.10;;
80891;SDS011;70343;51.530;5.050;2024-02-21T15:09:56;5.32;;;3.35;;
80891;SDS011;70343;51.530;5.050;2024-02-21T15:12:22;5.72;;;3.08;;
80891;SDS011;70343;51.530;5.050;2024-02-21T15:14:48;9.15;;;3.85;;
80891;SDS011;70343;51.530;5.050;2024-02-21T15:17:14;5.38;;;3.60;;
80891;SDS011;70343;51.530;5.050;2024-02-21T15:19:40;5.65;;;3.20;;
80891;SDS011;70343;51.530;5.050;2024-02-21T15:22:11;4.80;;;3.08;;
80891;SDS011;70343;51.530;5.050;2024-02-21T15:24:38;9.82;;;4.40;;
80891;SDS011;70343;51.530;5.050;2024-02-21T15:27:04;8.98;;;3.53;;
80891;SDS011;70343;51.530;5.050;2024-02-21T15:29:29;6.50;;;3.38;;
80891;SDS011;70343;51.530;5.050;2024-02-21T15:31:55;7.50;;;4.03;;
80891;SDS011;70343;51.530;5.050;2024-02-21T15:34:21;6.07;;;3.92;;
80891;SDS011;70343;51.530;5.050;2024-02-21T15:36:46;7.38;;;4.63;;
80891;SDS011;70343;51.530;5.050;2024-02-21T15:39:12;8.88;;;4.65;;
80891;SDS011;70343;51.530;5.050;2024-02-21T15:41:38;10.45;;;5.32;;
80891;SDS011;70343;51.530;5.050;2024-02-21T15:44:04;7.05;;;4.00;;
80891;SDS011;70343;51.530;5.050;2024-02-21T15:46:30;6.53;;;3.75;;
80891;SDS011;70343;51.530;5.050;2024-02-21T15:49:02;9.32;;;4.68;;
80891;SDS011;70343;51.530;5.050;2024-02-21T15:51:28;7.90;;;4.85;;
80891;SDS011;70343;51.530;5.050;2024-02-21T15:53:58;5.38;;;3.92;;
80891;SDS011;70343;51.530;5.050;2024-02-21T15:56:24;7.90;;;5.07;;
80891;SDS011;70343;51.530;5.050;2024-02-21T15:58:50;6.30;;;3.60;;
80891;SDS011;70343;51.530;5.050;2024-02-21T16:01:15;7.32;;;4.05;;
80891;SDS011;70343;51.530;5.050;2024-02-21T16:03:41;8.90;;;4.97;;
80891;SDS011;70343;51.530;5.050;2024-02-21T16:06:06;7.85;;;4.20;;
80891;SDS011;70343;51.530;5.050;2024-02-21T16:08:33;9.20;;;4.03;;
80891;SDS011;70343;51.530;5.050;2024-02-21T16:13:29;8.77;;;4.43;;
80891;SDS011;70343;51.530;5.050;2024-02-21T16:15:55;11.38;;;4.80;;
80891;SDS011;70343;51.530;5.050;2024-02-21T16:18:20;9.02;;;4.45;;
80891;SDS011;70343;51.530;5.050;2024-02-21T16:20:49;6.03;;;3.53;;
80891;SDS011;70343;51.530;5.050;2024-02-21T16:23:15;9.45;;;4.57;;
80891;SDS011;70343;51.530;5.050;2024-02-21T16:25:41;9.15;;;5.68;;
80891;SDS011;70343;51.530;5.050;2024-02-21T16:28:08;11.00;;;6.32;;
80891;SDS011;70343;51.530;5.050;2024-02-21T16:30:34;7.45;;;4.00;;
80891;SDS011;70343;51.530;5.050;2024-02-21T16:33:00;5.95;;;3.97;;
80891;SDS011;70343;51.530;5.050;2024-02-21T16:35:26;9.80;;;5.72;;
80891;SDS011;70343;51.530;5.050;2024-02-21T16:37:55;12.60;;;5.60;;
80891;SDS011;70343;51.530;5.050;2024-02-21T16:40:21;12.75;;;4.63;;
80891;SDS011;70343;51.530;5.050;2024-02-21T16:42:47;8.88;;;4.55;;
80891;SDS011;70343;51.530;5.050;2024-02-21T16:45:14;9.10;;;4.80;;
80891;SDS011;70343;51.530;5.050;2024-02-21T16:47:40;10.38;;;5.13;;
80891;SDS011;70343;51.530;5.050;2024-02-21T16:50:06;9.45;;;5.72;;
80891;SDS011;70343;51.530;5.050;2024-02-21T16:52:33;6.80;;;4.38;;
80891;SDS011;70343;51.530;5.050;2024-02-21T16:54:58;7.90;;;4.80;;
80891;SDS011;70343;51.530;5.050;2024-02-21T16:57:24;5.55;;;3.97;;
80891;SDS011;70343;51.530;5.050;2024-02-21T16:59:50;6.05;;;3.88;;
80891;SDS011;70343;51.530;5.050;2024-02-21T17:02:15;9.38;;;5.45;;
80891;SDS011;70343;51.530;5.050;2024-02-21T17:04:40;9.00;;;4.85;;
80891;SDS011;70343;51.530;5.050;2024-02-21T17:07:06;8.80;;;5.72;;
80891;SDS011;70343;51.530;5.050;2024-02-21T17:09:31;13.23;;;5.45;;
80891;SDS011;70343;51.530;5.050;2024-02-21T17:11:58;8.52;;;6.15;;
80891;SDS011;70343;51.530;5.050;2024-02-21T17:14:24;11.18;;;5.60;;
80891;SDS011;70343;51.530;5.050;2024-02-21T17:16:51;9.57;;;6.15;;
80891;SDS011;70343;51.530;5.050;2024-02-21T17:19:19;9.07;;;5.18;;
80891;SDS011;70343;51.530;5.050;2024-02-21T17:21:45;11.38;;;5.28;;
80891;SDS011;70343;51.530;5.050;2024-02-21T17:24:10;9.82;;;5.03;;
80891;SDS011;70343;51.530;5.050;2024-02-21T17:26:36;8.65;;;4.43;;
80891;SDS011;70343;51.530;5.050;2024-02-21T17:29:02;11.27;;;6.00;;
80891;SDS011;70343;51.530;5.050;2024-02-21T17:31:27;9.90;;;5.85;;
80891;SDS011;70343;51.530;5.050;2024-02-21T17:33:53;6.18;;;4.43;;
80891;SDS011;70343;51.530;5.050;2024-02-21T17:36:19;10.32;;;5.05;;
80891;SDS011;70343;51.530;5.050;2024-02-21T17:38:45;7.32;;;5.25;;
80891;SDS011;70343;51.530;5.050;2024-02-21T17:41:11;10.07;;;4.53;;
80891;SDS011;70343;51.530;5.050;2024-02-21T17:43:37;8.57;;;6.22;;
80891;SDS011;70343;51.530;5.050;2024-02-21T17:46:03;8.32;;;5.30;;
80891;SDS011;70343;51.530;5.050;2024-02-21T17:48:28;7.35;;;5.40;;
80891;SDS011;70343;51.530;5.050;2024-02-21T17:50:54;11.38;;;4.72;;
80891;SDS011;70343;51.530;5.050;2024-02-21T17:53:20;9.68;;;5.20;;
80891;SDS011;70343;51.530;5.050;2024-02-21T17:55:46;6.93;;;4.85;;
80891;SDS011;70343;51.530;5.050;2024-02-21T17:58:11;16.05;;;6.47;;
80891;SDS011;70343;51.530;5.050;2024-02-21T18:00:37;9.48;;;5.75;;
80891;SDS011;70343;51.530;5.050;2024-02-21T18:03:09;7.80;;;5.00;;
80891;SDS011;70343;51.530;5.050;2024-02-21T18:05:35;10.38;;;5.70;;
80891;SDS011;70343;51.530;5.050;2024-02-21T18:08:00;9.95;;;5.28;;
80891;SDS011;70343;51.530;5.050;2024-02-21T18:10:26;7.55;;;4.60;;
80891;SDS011;70343;51.530;5.050;2024-02-21T18:12:51;10.80;;;6.00;;
80891;SDS011;70343;51.530;5.050;2024-02-21T18:15:17;7.88;;;5.53;;
80891;SDS011;70343;51.530;5.050;2024-02-21T18:17:42;8.27;;;5.10;;
80891;SDS011;70343;51.530;5.050;2024-02-21T18:20:08;7.95;;;5.00;;
80891;SDS011;70343;51.530;5.050;2024-02-21T18:22:34;7.60;;;4.88;;
80891;SDS011;70343;51.530;5.050;2024-02-21T18:25:00;9.32;;;5.53;;
80891;SDS011;70343;51.530;5.050;2024-02-21T18:27:25;13.35;;;6.47;;
80891;SDS011;70343;51.530;5.050;2024-02-21T18:29:52;7.65;;;5.70;;
80891;SDS011;70343;51.530;5.050;2024-02-21T18:32:18;9.73;;;5.43;;
80891;SDS011;70343;51.530;5.050;2024-02-21T18:34:43;7.82;;;5.18;;
80891;SDS011;70343;51.530;5.050;2024-02-21T18:37:09;8.68;;;5.47;;
80891;SDS011;70343;51.530;5.050;2024-02-21T18:39:35;8.43;;;4.80;;
80891;SDS011;70343;51.530;5.050;2024-02-21T18:42:01;8.55;;;4.72;;
80891;SDS011;70343;51.530;5.050;2024-02-21T18:44:27;8.27;;;4.75;;
80891;SDS011;70343;51.530;5.050;2024-02-21T18:46:53;7.93;;;6.28;;
80891;SDS011;70343;51.530;5.050;2024-02-21T18:49:18;8.23;;;5.22;;
80891;SDS011;70343;51.530;5.050;2024-02-21T18:51:44;8.95;;;5.88;;
80891;SDS011;70343;51.530;5.050;2024-02-21T18:54:10;6.18;;;4.07;;
80891;SDS011;70343;51.530;5.050;2024-02-21T18:56:35;7.47;;;4.63;;
80891;SDS011;70343;51.530;5.050;2024-02-21T18:59:00;7.18;;;4.13;;
80891;SDS011;70343;51.530;5.050;2024-02-21T19:01:26;8.68;;;5.43;;
80891;SDS011;70343;51.530;5.050;2024-02-21T19:03:51;7.72;;;4.45;;
80891;SDS011;70343;51.530;5.050;2024-02-21T19:06:17;8.15;;;4.78;;
80891;SDS011;70343;51.530;5.050;2024-02-21T19:08:44;5.93;;;4.80;;
80891;SDS011;70343;51.530;5.050;2024-02-21T19:11:11;11.70;;;5.45;;
80891;SDS011;70343;51.530;5.050;2024-02-21T19:13:37;7.45;;;3.50;;
80891;SDS011;70343;51.530;5.050;2024-02-21T19:16:02;9.80;;;5.65;;
80891;SDS011;70343;51.530;5.050;2024-02-21T19:18:28;6.75;;;4.07;;
80891;SDS011;70343;51.530;5.050;2024-02-21T19:20:54;7.07;;;4.40;;
80891;SDS011;70343;51.530;5.050;2024-02-21T19:23:20;5.95;;;4.25;;
80891;SDS011;70343;51.530;5.050;2024-02-21T19:25:46;6.47;;;5.32;;
80891;SDS011;70343;51.530;5.050;2024-02-21T19:28:12;8.07;;;4.80;;
80891;SDS011;70343;51.530;5.050;2024-02-21T19:30:41;7.63;;;4.35;;
80891;SDS011;70343;51.530;5.050;2024-02-21T19:33:07;6.47;;;5.07;;
80891;SDS011;70343;51.530;5.050;2024-02-21T19:35:35;6.10;;;4.45;;
80891;SDS011;70343;51.530;5.050;2024-02-21T19:38:00;6.50;;;4.88;;
80891;SDS011;70343;51.530;5.050;2024-02-21T19:40:31;6.85;;;4.82;;
80891;SDS011;70343;51.530;5.050;2024-02-21T19:42:58;7.55;;;5.90;;
80891;SDS011;70343;51.530;5.050;2024-02-21T19:45:24;6.38;;;5.10;;
80891;SDS011;70343;51.530;5.050;2024-02-21T19:47:52;6.68;;;3.88;;
80891;SDS011;70343;51.530;5.050;2024-02-21T19:50:18;7.25;;;5.63;;
80891;SDS011;70343;51.530;5.050;2024-02-21T19:52:49;8.25;;;5.80;;
80891;SDS011;70343;51.530;5.050;2024-02-21T19:55:15;7.90;;;6.28;;
80891;SDS011;70343;51.530;5.050;2024-02-21T19:57:44;6.50;;;4.15;;
80891;SDS011;70343;51.530;5.050;2024-02-21T20:00:11;4.93;;;3.53;;
80891;SDS011;70343;51.530;5.050;2024-02-21T20:02:40;6.90;;;4.47;;
80891;SDS011;70343;51.530;5.050;2024-02-21T20:05:07;5.88;;;4.80;;
80891;SDS011;70343;51.530;5.050;2024-02-21T20:07:33;5.85;;;3.80;;
80891;SDS011;70343;51.530;5.050;2024-02-21T20:09:59;5.70;;;4.15;;
80891;SDS011;70343;51.530;5.050;2024-02-21T20:12:25;8.80;;;4.00;;
80891;SDS011;70343;51.530;5.050;2024-02-21T20:14:51;6.13;;;4.05;;
80891;SDS011;70343;51.530;5.050;2024-02-21T20:17:17;7.28;;;4.55;;
80891;SDS011;70343;51.530;5.050;2024-02-21T20:19:43;9.43;;;4.95;;
80891;SDS011;70343;51.530;5.050;2024-02-21T20:22:08;6.32;;;4.50;;
80891;SDS011;70343;51.530;5.050;2024-02-21T20:24:34;5.82;;;3.47;;
80891;SDS011;70343;51.530;5.050;2024-02-21T20:27:00;5.90;;;3.95;;
80891;SDS011;70343;51.530;5.050;2024-02-21T20:29:26;5.38;;;4.07;;
80891;SDS011;70343;51.530;5.050;2024-02-21T20:31:51;7.55;;;4.13;;
80891;SDS011;70343;51.530;5.050;2024-02-21T20:34:17;4.72;;;3.63;;
80891;SDS011;70343;51.530;5.050;2024-02-21T20:36:42;5.30;;;4.10;;
80891;SDS011;70343;51.530;5.050;2024-02-21T20:39:09;4.20;;;3.33;;
80891;SDS011;70343;51.530;5.050;2024-02-21T20:41:35;4.07;;;2.95;;
80891;SDS011;70343;51.530;5.050;2024-02-21T20:44:02;5.72;;;4.13;;
80891;SDS011;70343;51.530;5.050;2024-02-21T20:46:29;5.68;;;3.45;;
80891;SDS011;70343;51.530;5.050;2024-02-21T20:48:54;3.97;;;3.58;;
80891;SDS011;70343;51.530;5.050;2024-02-21T20:51:20;3.78;;;3.40;;
80891;SDS011;70343;51.530;5.050;2024-02-21T20:53:45;5.47;;;4.40;;
80891;SDS011;70343;51.530;5.050;2024-02-21T20:56:11;4.25;;;3.22;;
80891;SDS011;70343;51.530;5.050;2024-02-21T20:58:36;5.35;;;4.22;;
80891;SDS011;70343;51.530;5.050;2024-02-21T21:01:02;7.28;;;4.63;;
80891;SDS011;70343;51.530;5.050;2024-02-21T21:03:28;6.05;;;4.53;;
80891;SDS011;70343;51.530;5.050;2024-02-21T21:05:54;6.13;;;4.72;;
80891;SDS011;70343;51.530;5.050;2024-02-21T21:08:19;5.00;;;4.13;;
80891;SDS011;70343;51.530;5.050;2024-02-21T21:10:44;5.05;;;3.95;;
80891;SDS011;70343;51.530;5.050;2024-02-21T21:13:10;3.60;;;2.97;;
80891;SDS011;70343;51.530;5.050;2024-02-21T21:15:35;5.47;;;4.07;;
80891;SDS011;70343;51.530;5.050;2024-02-21T21:18:03;6.53;;;4.55;;
80891;SDS011;70343;51.530;5.050;2024-02-21T21:20:29;5.53;;;4.13;;
80891;SDS011;70343;51.530;5.050;2024-02-21T21:22:56;5.10;;;4.22;;
80891;SDS011;70343;51.530;5.050;2024-02-21T21:25:23;5.57;;;4.43;;
80891;SDS011;70343;51.530;5.050;2024-02-21T21:27:49;5.78;;;4.63;;
80891;SDS011;70343;51.530;5.050;2024-02-21T21:30:15;7.28;;;5.28;;
80891;SDS011;70343;51.530;5.050;2024-02-21T21:32:40;7.93;;;6.00;;
80891;SDS011;70343;51.530;5.050;2024-02-21T21:35:09;6.80;;;5.95;;
80891;SDS011;70343;51.530;5.050;2024-02-21T21:37:35;8.02;;;5.25;;
80891;SDS011;70343;51.530;5.050;2024-02-21T21:40:02;5.70;;;4.75;;
80891;SDS011;70343;51.530;5.050;2024-02-21T21:42:29;8.75;;;7.85;;
80891;SDS011;70343;51.530;5.050;2024-02-21T21:44:54;7.18;;;6.15;;
80891;SDS011;70343;51.530;5.050;2024-02-21T21:47:20;7.70;;;6.60;;
80891;SDS011;70343;51.530;5.050;2024-02-21T21:49:45;7.35;;;6.30;;
80891;SDS011;70343;51.530;5.050;2024-02-21T21:52:11;8.20;;;6.80;;
80891;SDS011;70343;51.530;5.050;2024-02-21T21:54:37;8.10;;;6.35;;
80891;SDS011;70343;51.530;5.050;2024-02-21T21:57:04;9.68;;;7.18;;
80891;SDS011;70343;51.530;5.050;2024-02-21T21:59:29;8.07;;;7.28;;
80891;SDS011;70343;51.530;5.050;2024-02-21T22:01:55;9.40;;;6.93;;
80891;SDS011;70343;51.530;5.050;2024-02-21T22:04:21;9.00;;;7.63;;
80891;SDS011;70343;51.530;5.050;2024-02-21T22:06:46;7.68;;;6.40;;
80891;SDS011;70343;51.530;5.050;2024-02-21T22:09:12;10.15;;;7.80;;
80891;SDS011;70343;51.530;5.050;2024-02-21T22:11:37;8.45;;;6.10;;
80891;SDS011;70343;51.530;5.050;2024-02-21T22:14:04;11.35;;;8.50;;
80891;SDS011;70343;51.530;5.050;2024-02-21T22:16:29;10.13;;;8.57;;
80891;SDS011;70343;51.530;5.050;2024-02-21T22:18:55;12.25;;;8.07;;
80891;SDS011;70343;51.530;5.050;2024-02-21T22:21:20;11.73;;;8.48;;
80891;SDS011;70343;51.530;5.050;2024-02-21T22:23:46;9.10;;;6.78;;
80891;SDS011;70343;51.530;5.050;2024-02-21T22:26:12;11.20;;;8.13;;
80891;SDS011;70343;51.530;5.050;2024-02-21T22:28:40;11.75;;;8.95;;
80891;SDS011;70343;51.530;5.050;2024-02-21T22:31:05;11.07;;;8.20;;
80891;SDS011;70343;51.530;5.050;2024-02-21T22:33:31;12.15;;;8.77;;
80891;SDS011;70343;51.530;5.050;2024-02-21T22:35:56;10.88;;;8.52;;
80891;SDS011;70343;51.530;5.050;2024-02-21T22:38:22;12.05;;;9.32;;
80891;SDS011;70343;51.530;5.050;2024-02-21T22:40:47;13.10;;;10.05;;
80891;SDS011;70343;51.530;5.050;2024-02-21T22:43:13;12.88;;;11.10;;
80891;SDS011;70343;51.530;5.050;2024-02-21T22:45:38;13.80;;;8.88;;
80891;SDS011;70343;51.530;5.050;2024-02-21T22:48:04;15.70;;;12.10;;
80891;SDS011;70343;51.530;5.050;2024-02-21T22:50:30;13.95;;;9.95;;
80891;SDS011;70343;51.530;5.050;2024-02-21T22:52:55;13.02;;;10.45;;
80891;SDS011;70343;51.530;5.050;2024-02-21T22:55:21;14.40;;;9.98;;
80891;SDS011;70343;51.530;5.050;2024-02-21T22:57:47;13.23;;;9.35;;
80891;SDS011;70343;51.530;5.050;2024-02-21T23:00:12;12.82;;;10.98;;
80891;SDS011;70343;51.530;5.050;2024-02-21T23:02:41;13.48;;;9.18;;
80891;SDS011;70343;51.530;5.050;2024-02-21T23:05:08;13.98;;;10.68;;
80891;SDS011;70343;51.530;5.050;2024-02-21T23:07:33;13.32;;;8.98;;
80891;SDS011;70343;51.530;5.050;2024-02-21T23:09:59;13.73;;;8.82;;
80891;SDS011;70343;51.530;5.050;2024-02-21T23:12:25;12.10;;;8.23;;
80891;SDS011;70343;51.530;5.050;2024-02-21T23:14:52;10.93;;;7.75;;
80891;SDS011;70343;51.530;5.050;2024-02-21T23:17:18;11.27;;;8.02;;
80891;SDS011;70343;51.530;5.050;2024-02-21T23:19:43;11.75;;;8.02;;
80891;SDS011;70343;51.530;5.050;2024-02-21T23:22:09;10.68;;;7.68;;
80891;SDS011;70343;51.530;5.050;2024-02-21T23:24:34;11.82;;;8.23;;
80891;SDS011;70343;51.530;5.050;2024-02-21T23:27:00;10.45;;;8.38;;
80891;SDS011;70343;51.530;5.050;2024-02-21T23:29:26;10.93;;;8.23;;
80891;SDS011;70343;51.530;5.050;2024-02-21T23:31:52;11.27;;;7.80;;
80891;SDS011;70343;51.530;5.050;2024-02-21T23:34:17;12.10;;;9.05;;
80891;SDS011;70343;51.530;5.050;2024-02-21T23:36:43;13.50;;;10.63;;
80891;SDS011;70343;51.530;5.050;2024-02-21T23:39:08;9.70;;;7.28;;
80891;SDS011;70343;51.530;5.050;2024-02-21T23:41:34;13.43;;;11.65;;
80891;SDS011;70343;51.530;5.050;2024-02-21T23:43:59;11.73;;;8.32;;
80891;SDS011;70343;51.530;5.050;2024-02-21T23:46:25;11.63;;;9.52;;
80891;SDS011;70343;51.530;5.050;2024-02-21T23:48:51;10.52;;;7.25;;
80891;SDS011;70343;51.530;5.050;2024-02-21T23:51:16;11.02;;;8.05;;
80891;SDS011;70343;51.530;5.050;2024-02-21T23:53:42;10.73;;;7.10;;
80891;SDS011;70343;51.530;5.050;2024-02-21T23:56:08;10.50;;;7.00;;
80891;SDS011;70343;51.530;5.050;2024-02-21T23:58:34;11.77;;;7.82;;
